Flight Track Log - Related Links

Times and Time Zones

All times are in EDT time to prevent confusion due to time zone crossing. See the CES5160 flight status page for this flight to view local times or setup timezone preferences in your user account.

Time Position Orientation Groundspeed Altitude Reporting Facility
EDT Latitude Longitude Course Direction KTS MPH feet Rate Location/Type
Tue 11:06:00 AM 35.7796 118.4010 342° North  Level Estimated
Tue 11:07:00 AM 35.8658 118.3667 342° North  Level Estimated
Tue 11:08:00 AM 35.9520 118.3323 342° North  Level Estimated
Tue 11:09:00 AM 36.0382 118.2978 342° North  Level Estimated
Tue 11:10:00 AM 36.1244 118.2633 342° North  Level Estimated
Tue 11:11:00 AM 36.2106 118.2287 342° North  Level Estimated
Tue 11:12:00 AM 36.2967 118.1940 342° North  Level Estimated
Tue 11:13:00 AM 36.3829 118.1592 342° North  Level Estimated
Tue 11:14:00 AM 36.4690 118.1244 342° North  Level Estimated
Tue 11:15:00 AM 36.5551 118.0895 342° North  Level Estimated
Tue 11:16:00 AM 36.6413 118.0545 342° North  Level Estimated
Tue 11:17:00 AM 36.7274 118.0194 342° North  Level Estimated
Tue 11:18:00 AM 36.8135 117.9843 342° North  Level Estimated
Tue 11:19:00 AM 36.8996 117.9491 342° North  Level Estimated
Tue 11:20:00 AM 36.9856 117.9137 342° North  Level Estimated
Tue 11:21:00 AM 37.0717 117.8784 342° North  Level Estimated
Tue 11:22:00 AM 37.1578 117.8429 342° North  Level Estimated
Tue 11:23:00 AM 37.2438 117.8073 342° North  Level Estimated
Tue 11:24:00 AM 37.3298 117.7717 342° North  Level Estimated
Tue 11:25:00 AM 37.4159 117.7360 342° North  Level Estimated
Tue 11:26:00 AM 37.5019 117.7002 342° North  Level Estimated
Tue 11:27:00 AM 37.5879 117.6643 342° North  Level Estimated
Tue 11:28:00 AM 37.6739 117.6284 342° North  Level Estimated
Tue 11:29:00 AM 37.7599 117.5923 342° North  Level Estimated
Tue 11:30:00 AM 37.8458 117.5562 342° North  Level Estimated
Tue 11:31:00 AM 37.9318 117.5200 342° North  Level Estimated
Tue 11:32:00 AM 38.0177 117.4837 342° North  Level Estimated
Tue 11:33:00 AM 38.1037 117.4473 342° North  Level Estimated
Tue 11:34:00 AM 38.1896 117.4109 342° North  Level Estimated
Tue 11:35:00 AM 38.2755 117.3743 342° North  Level Estimated
Tue 11:36:00 AM 38.3614 117.3376 342° North  Level Estimated
Tue 11:37:00 AM 38.4473 117.3009 341° North  Level Estimated
Tue 11:38:00 AM 38.5332 117.2641 341° North  Level Estimated
Tue 11:39:00 AM 38.6191 117.2272 341° North  Level Estimated
Tue 11:40:00 AM 38.7049 117.1902 341° North  Level Estimated
Tue 11:41:00 AM 38.7908 117.1531 341° North  Level Estimated
Tue 11:42:00 AM 38.8766 117.1160 341° North  Level Estimated
Tue 11:43:00 AM 38.9624 117.0787 341° North  Level Estimated
Tue 11:44:00 AM 39.0482 117.0414 341° North  Level Estimated
Tue 11:45:00 AM 39.1340 117.0039 341° North  Level Estimated
Tue 11:46:00 AM 39.2198 116.9664 341° North  Level Estimated
Tue 11:47:00 AM 39.3056 116.9288 341° North  Level Estimated
Tue 11:48:00 AM 39.3914 116.8911 341° North  Level Estimated
Tue 11:49:00 AM 39.4771 116.8532 341° North  Level Estimated
Tue 11:50:00 AM 39.5629 116.8153 341° North  Level Estimated
Tue 11:51:00 AM 39.6486 116.7773 341° North  Level Estimated
Tue 11:52:00 AM 39.7343 116.7393 341° North  Level Estimated
Tue 11:53:00 AM 39.8200 116.7011 341° North  Level Estimated
Tue 11:54:00 AM 39.9057 116.6628 341° North  Level Estimated
Tue 11:55:00 AM 39.9914 116.6244 341° North  Level Estimated
Tue 11:56:00 AM 40.0770 116.5859 341° North  Level Estimated
Tue 11:57:00 AM 40.0801 116.5846 341° North  Level Estimated
Tue 11:58:00 AM 40.0801 116.5846 North  Level Estimated
Tue 11:59:00 AM 40.0801 116.5846 North  Level Estimated
Tue 12:00:00 PM 40.0801 116.5846 North  Level Estimated
Tue 12:01:00 PM 40.0801 116.5846 North  Level Estimated
Tue 12:02:00 PM 40.0801 116.5846 North  Level Estimated
Tue 12:03:00 PM 40.0801 116.5846 North  Level Estimated
Tue 12:04:00 PM 40.0801 116.5846 North  Level Estimated
Tue 12:05:00 PM 40.0801 116.5846 North  Level Estimated
Tue 12:06:00 PM 40.0801 116.5846 North  Level Estimated
Tue 12:07:00 PM 40.0801 116.5846 North  Level Estimated
Tue 12:08:00 PM 40.0801 116.5846 North  Level Estimated
Tue 12:09:00 PM 40.0801 116.5846 North  Level Estimated
Tue 12:10:00 PM 40.0801 116.5846 North  Level Estimated

Login

Don't have an account? Register now (free) for customized features, flight alerts, and more!